createdAt,value
2022-11-10T00:04:35.171Z,11354.06279
2022-11-10T00:19:37.745Z,11527.49552
2022-11-10T00:34:40.215Z,11320.0006
2022-11-10T00:49:42.497Z,10309.65448
2022-11-10T01:04:44.826Z,8286.96976
2022-11-10T01:19:47.279Z,6877.27873
2022-11-10T01:34:49.730Z,6566.12576
2022-11-10T01:49:52.045Z,5549.02015
2022-11-10T02:04:54.343Z,5484.49667
2022-11-10T02:19:56.694Z,5380.22868
2022-11-10T02:34:58.939Z,5339.62318
2022-11-10T02:50:01.522Z,4841.7456
2022-11-10T03:05:03.709Z,4821.12488
2022-11-10T03:20:06.163Z,4557.16638
2022-11-10T03:35:08.627Z,4582.99647
2022-11-10T03:50:11.052Z,4764.31028
2022-11-10T04:05:13.600Z,4646.96275
2022-11-10T04:20:15.812Z,4586.7104
2022-11-10T04:35:18.040Z,4833.47618
2022-11-10T04:50:20.291Z,5031.11164
2022-11-10T05:05:22.750Z,4934.61256
2022-11-10T05:20:25.134Z,4982.39489
2022-11-10T05:35:27.372Z,4784.44684
2022-11-10T05:50:29.679Z,4432.26363
2022-11-10T06:05:32.029Z,3988.72495
2022-11-10T06:20:34.527Z,4107.40253
2022-11-10T06:35:36.840Z,4411.53597
2022-11-10T06:50:39.098Z,4495.63197
2022-11-10T07:05:41.340Z,4039.97195
2022-11-10T07:20:43.578Z,4470.7746
2022-11-10T07:35:45.816Z,4158.70734
2022-11-10T07:50:48.257Z,4019.88686
2022-11-10T08:05:50.776Z,4177.12228
2022-11-10T08:20:53.744Z,4728.4884
2022-11-10T08:35:56.002Z,5206.99225
2022-11-10T08:50:58.253Z,5395.61541
2022-11-10T09:06:01.164Z,5527.3443
2022-11-10T09:21:03.703Z,5671.34324
2022-11-10T09:36:05.883Z,5620.65596
2022-11-10T09:51:08.292Z,6138.8291
2022-11-10T10:06:10.559Z,6195.95011
2022-11-10T10:21:12.909Z,6450.14292
2022-11-10T10:36:15.229Z,6802.88509
2022-11-10T10:51:17.739Z,7035.42621
2022-11-10T11:06:19.973Z,7413.22904
2022-11-10T11:21:22.226Z,7955.02509
2022-11-10T11:36:24.544Z,8543.39674
2022-11-10T11:51:26.775Z,8220.77029
2022-11-10T12:06:29.025Z,8410.10452
2022-11-10T12:21:31.319Z,8422.61956
2022-11-10T12:36:33.521Z,8941.54871
2022-11-10T12:51:35.733Z,9240.81686
2022-11-10T13:06:38.084Z,9658.70361
2022-11-10T13:21:40.391Z,9929.82511
2022-11-10T13:36:42.618Z,10143.36973
2022-11-10T13:51:45.007Z,10520.44667
2022-11-10T14:06:47.314Z,11141.73288
2022-11-10T14:21:53.957Z,11163.70868
2022-11-10T14:36:57.737Z,11365.46245
2022-11-10T14:51:59.935Z,10770.69516
2022-11-10T15:07:02.484Z,10520.44667
2022-11-10T15:22:04.728Z,9938.54313
2022-11-10T15:37:07.189Z,10599.25151
2022-11-10T15:52:09.417Z,10926.64151
2022-11-10T16:07:12.119Z,11365.46245
2022-11-10T16:22:14.462Z,11527.49552
2022-11-10T16:37:16.726Z,11742.73921
2022-11-10T16:52:18.954Z,12535.99179
2022-11-10T17:07:21.293Z,12535.99179
2022-11-10T17:22:23.609Z,12535.99179
2022-11-10T17:37:25.815Z,12016.98577
2022-11-10T17:52:28.066Z,11841.00481
2022-11-10T18:07:30.290Z,10510.67838
2022-11-10T18:22:32.531Z,10116.17571
2022-11-10T18:37:38.752Z,10272.23287
2022-11-10T18:52:41.541Z,10235.08194
2022-11-10T19:07:43.823Z,9964.78929
2022-11-10T19:22:46.114Z,9683.49071
2022-11-10T19:37:48.584Z,9716.73874
2022-11-10T19:52:50.816Z,10116.17571
2022-11-10T20:07:53.160Z,9301.56175
2022-11-10T20:22:55.589Z,9617.67259
2022-11-10T20:37:57.908Z,9758.62124
2022-11-10T20:53:00.218Z,9488.68453
2022-11-10T21:08:03.109Z,9929.82511
2022-11-10T21:23:05.535Z,9947.27647
2022-11-10T21:38:07.789Z,10462.10778
2022-11-10T21:53:10.232Z,10481.48205
2022-11-10T22:08:12.501Z,10462.10778
2022-11-10T22:23:14.761Z,9843.47881
2022-11-10T22:38:17.047Z,10481.48205
2022-11-10T22:53:19.456Z,10947.77622
2022-11-10T23:08:21.759Z,11163.70868
2022-11-10T23:23:24.986Z,11342.68597
2022-11-10T23:38:27.874Z,10170.71035
2022-11-10T23:53:30.402Z,7345.87979
